Denver, Colorado
Traffic Map
Current Weather Conditions
Denver, Colorado
Broken Clouds
Broken Clouds
53°
Feels Like: 53°
Wind Chill: 53° Ceiling: 22000
Heat Index: 53° Visibility: 10mi
Dew Point: 42° Wind: 14mph
Humidity: 66% Direction: 190° (S)
Pressure: 30.11in Gusts: 0mph
Raw Report DataKBKF 221458Z 19012KT 10SM SCT110 BKN220 12/06 A3011 RMK AO2A SLP143 T01190057 52011
Traffic Incident Summary
Active as of:
Severity:
Category:
InformationThere was an issue retrieving the traffic information for this location. Please try a different location or try again shortly.
Advertisements
Track Severe Weather on mobile